^^

Nearby METAR Reports


EGAC - Belfast Harbour, United Kingdom
Distance from station: W 8mi, 13km
Updated: 24/05/2022 16:50
Few Clouds
Few Clouds
space Wind from WNW
Wind: WNW 7 mph , 11 km/h, Gust: 15 mph , 24 km/h
Temperature: 16°C
Dew Point: 4°C
Humidity: 45%
Barometer: 1005 hPa
Clouds: Few Clouds
Visibility: 6 miles , 10 km
Cloud details: Few Clouds 1341 m
2022/05/24 15:50 EGAC 241550Z AUTO 30006G13KT 240V330 9999 FEW044/// 16/04 Q1005
EGAA - Belfast/Aldergro, United Kingdom
Distance from station: W 22mi, 35km
Updated: 24/05/2022 16:50
Few Clouds
Few Clouds
space Wind from WNW
Wind: WNW 12 mph , 19 km/h
Temperature: 15°C
Dew Point: 6°C
Humidity: 55%
Barometer: 1005 hPa
Clouds: Few Clouds
Visibility: 6 miles , 10 km
Cloud details: Few Clouds 1463 m
2022/05/24 15:50 EGAA 241550Z AUTO 30010KT 270V330 9999 FEW048 15/06 Q1005
 
EGNS - Isle Of Man/Rona, United Kingdom
Distance from station: SE 57mi, 91km
Updated: 24/05/2022 16:50
Few Clouds
Few Clouds
space Wind from SW
Wind: SW 14 mph , 22 km/h
Temperature: 13°C
Dew Point: 9°C
Humidity: 77%
Barometer: 1006 hPa
Clouds: Few Clouds
Visibility: 6 miles , 10 km
Cloud details: Few Clouds 610 m
2022/05/24 15:50 EGNS 241550Z 23012KT 9999 FEW020 13/09 Q1006 NOSIG
EGPK - Prestwick(Civ/Na, United Kingdom
Distance from station: NE 74mi, 119km
Updated: 24/05/2022 16:50
Light rain, Showers, Partly cloudy
Light rain, Showers, Partly cloudy
space Wind from W
Wind: W 14 mph , 22 km/h
Temperature: 12°C
Dew Point: 9°C
Humidity: 82%
Barometer: 1004 hPa
Summary: Light rain, Showers
Clouds: Partly cloudy
Visibility: 6 miles , 10 km
Cloud details: Few Clouds 1219 m
Partly cloudy 1433 m
2022/05/24 15:50 EGPK 241550Z 26012KT 9999 -SHRA FEW040 SCT047 12/09 Q1004
 
EIDW - Dublin Airport, Ireland
Distance from station: SSW 87mi, 141km
Updated: 24/05/2022 16:30
Mostly cloudy
Mostly cloudy
space Wind from W
Wind: W 14 mph , 22 km/h
Temperature: 16°C
Dew Point: 7°C
Humidity: 55%
Barometer: 1006 hPa
Clouds: Mostly cloudy
Visibility: 6 miles , 10 km
Cloud details: Few Clouds 762 m
Mostly cloudy 1524 m
2022/05/24 15:30 EIDW 241530Z 28012KT 9999 FEW025 BKN050 16/07 Q1006 NOSIG
EGPF - Glasgow Airport, United Kingdom
Distance from station: NNE 98mi, 158km
Updated: 24/05/2022 16:50
Partly cloudy
Partly cloudy
space Wind from WSW
Wind: WSW 17 mph , 28 km/h
Temperature: 14°C
Dew Point: 8°C
Humidity: 67%
Barometer: 1003 hPa
Clouds: Partly cloudy
Visibility: 6 miles , 10 km
Cloud details: Partly cloudy 1006 m
2022/05/24 15:50 EGPF 241550Z AUTO 25015KT 9999 SCT033 14/08 Q1003